createdAt,value
2022-08-20T00:00:07.985Z,49.87
2022-08-20T00:02:42.294Z,50.09
2022-08-20T00:05:08.975Z,49.88
2022-08-20T00:07:35.780Z,49.83
2022-08-20T00:10:02.370Z,49.98
2022-08-20T00:12:29.508Z,50.52
2022-08-20T00:14:56.059Z,50.20
2022-08-20T00:17:22.569Z,50.46
2022-08-20T00:19:49.065Z,50.46
2022-08-20T00:22:15.562Z,50.34
2022-08-20T00:24:42.061Z,50.53
2022-08-20T00:27:08.627Z,50.72
2022-08-20T00:29:35.124Z,50.77
2022-08-20T00:32:01.604Z,50.87
2022-08-20T00:34:28.219Z,50.84
2022-08-20T00:36:54.708Z,50.97
2022-08-20T00:39:21.226Z,50.96
2022-08-20T00:41:47.747Z,51.34
2022-08-20T00:44:18.686Z,51.28
2022-08-20T00:46:45.444Z,51.07
2022-08-20T00:49:22.394Z,51.16
2022-08-20T00:51:53.507Z,51.06
2022-08-20T00:54:24.927Z,51.04
2022-08-20T00:57:03.490Z,51.31
2022-08-20T00:59:31.810Z,51.42
2022-08-20T01:01:58.559Z,51.60
2022-08-20T01:04:27.144Z,51.38
2022-08-20T01:06:53.908Z,51.44
2022-08-20T01:09:49.386Z,51.77
2022-08-20T01:12:06.963Z,51.92
2022-08-20T01:14:33.740Z,51.61
2022-08-20T01:17:05.212Z,51.94
2022-08-20T01:19:53.015Z,52.00
2022-08-20T01:22:43.363Z,51.69
2022-08-20T01:25:19.288Z,51.74
2022-08-20T01:27:45.807Z,52.00
2022-08-20T01:30:12.769Z,52.02
2022-08-20T01:32:39.278Z,51.93
2022-08-20T01:35:05.874Z,52.33
2022-08-20T01:37:32.386Z,52.06
2022-08-20T01:39:59.270Z,52.04
2022-08-20T01:42:36.209Z,51.89
2022-08-20T01:45:04.289Z,52.36
2022-08-20T01:47:31.705Z,52.39
2022-08-20T01:50:13.430Z,52.01
2022-08-20T01:53:01.395Z,52.02
2022-08-20T01:55:27.960Z,52.32
2022-08-20T01:57:54.881Z,52.13
2022-08-20T02:00:22.414Z,52.18
2022-08-20T02:02:49.373Z,52.21
2022-08-20T02:05:15.862Z,51.89
2022-08-20T02:07:42.387Z,52.04
2022-08-20T02:10:10.025Z,52.16
2022-08-20T02:12:36.775Z,52.17
2022-08-20T02:15:03.767Z,52.17
2022-08-20T02:17:30.396Z,52.27
2022-08-20T02:20:09.546Z,52.62
2022-08-20T02:22:52.986Z,52.98
2022-08-20T02:25:22.900Z,52.70
2022-08-20T02:27:51.767Z,52.72
2022-08-20T02:30:27.984Z,52.80
2022-08-20T02:32:55.230Z,52.81
2022-08-20T02:35:22.883Z,53.09
2022-08-20T02:37:49.698Z,52.88
2022-08-20T02:40:18.088Z,53.19
2022-08-20T02:42:54.296Z,53.05
2022-08-20T02:45:22.485Z,53.18
2022-08-20T02:47:49.454Z,53.53
2022-08-20T02:50:17.837Z,53.19
2022-08-20T02:52:51.985Z,53.53
2022-08-20T02:55:26.871Z,53.72
2022-08-20T02:57:57.529Z,53.96
2022-08-20T03:00:25.506Z,54.08
2022-08-20T03:02:52.047Z,54.08
2022-08-20T03:05:18.529Z,54.08
2022-08-20T03:07:45.954Z,54.35
2022-08-20T03:10:13.028Z,54.33
2022-08-20T03:12:39.506Z,54.08
2022-08-20T03:15:07.406Z,54.04
2022-08-20T03:17:43.968Z,54.19
2022-08-20T03:20:10.874Z,54.18
2022-08-20T03:22:37.351Z,54.11
2022-08-20T03:25:04.555Z,54.56
2022-08-20T03:27:36.223Z,54.25
2022-08-20T03:30:05.150Z,54.66
2022-08-20T03:32:31.690Z,54.58
2022-08-20T03:34:58.412Z,54.52
2022-08-20T03:37:25.319Z,54.74
2022-08-20T03:39:52.338Z,54.39
2022-08-20T03:42:18.833Z,54.34
2022-08-20T03:44:45.326Z,54.41
2022-08-20T03:47:11.979Z,54.59
2022-08-20T03:49:38.459Z,54.60
2022-08-20T03:52:05.012Z,54.43
2022-08-20T03:54:32.035Z,54.68
2022-08-20T03:56:59.071Z,54.62
2022-08-20T03:59:25.595Z,54.82
2022-08-20T04:01:52.633Z,55.22
2022-08-20T04:04:20.457Z,55.48
2022-08-20T04:06:47.603Z,55.29
2022-08-20T04:09:14.481Z,55.34
2022-08-20T04:11:41.402Z,54.92
2022-08-20T04:14:09.177Z,55.08
2022-08-20T04:16:37.749Z,55.53
2022-08-20T04:19:04.964Z,55.24
2022-08-20T04:21:32.959Z,55.65
2022-08-20T04:24:00.215Z,55.82
2022-08-20T04:26:26.689Z,55.53
2022-08-20T04:28:55.404Z,55.30
2022-08-20T04:31:25.455Z,55.49
2022-08-20T04:33:52.196Z,55.74
2022-08-20T04:36:18.673Z,55.51
2022-08-20T04:38:50.083Z,55.61
2022-08-20T04:41:23.112Z,55.68
2022-08-20T04:43:50.631Z,55.85
2022-08-20T04:46:17.435Z,55.55
2022-08-20T04:48:48.887Z,56.06
2022-08-20T04:51:17.216Z,55.99
2022-08-20T04:53:51.764Z,55.82
2022-08-20T04:56:23.452Z,55.98
2022-08-20T04:58:51.346Z,56.04
2022-08-20T05:01:18.060Z,56.25
2022-08-20T05:03:45.980Z,56.43
2022-08-20T05:06:12.519Z,56.04
2022-08-20T05:08:39.084Z,56.12
2022-08-20T05:11:34.973Z,56.20
2022-08-20T05:13:52.880Z,56.43
2022-08-20T05:16:19.918Z,56.84
2022-08-20T05:18:50.555Z,57.00
2022-08-20T05:21:19.746Z,56.76
2022-08-20T05:23:46.246Z,57.05
2022-08-20T05:26:13.011Z,57.12
2022-08-20T05:28:57.796Z,57.11
2022-08-20T05:31:32.603Z,56.94
2022-08-20T05:34:10.701Z,57.42
2022-08-20T05:36:39.951Z,57.06
2022-08-20T05:39:06.439Z,57.13
2022-08-20T05:41:32.933Z,57.13
2022-08-20T05:44:01.177Z,57.26
2022-08-20T05:46:28.511Z,57.52
2022-08-20T05:48:55.003Z,57.56
2022-08-20T05:51:26.111Z,57.72
2022-08-20T05:53:52.596Z,57.65
2022-08-20T05:56:19.077Z,57.81
2022-08-20T05:58:48.149Z,58.38
2022-08-20T06:01:18.645Z,57.94
2022-08-20T06:04:03.710Z,58.17
2022-08-20T06:06:44.706Z,58.34
2022-08-20T06:09:13.340Z,58.27
2022-08-20T06:11:39.822Z,58.51
2022-08-20T06:14:06.301Z,58.64
2022-08-20T06:16:32.775Z,58.63
2022-08-20T06:18:59.965Z,58.68
2022-08-20T06:21:29.305Z,58.90
2022-08-20T06:24:00.839Z,58.69
2022-08-20T06:26:30.318Z,58.96
2022-08-20T06:28:58.508Z,58.91
2022-08-20T06:31:25.009Z,58.55
2022-08-20T06:33:51.503Z,58.57
2022-08-20T06:36:18.856Z,58.69
2022-08-20T06:38:46.140Z,58.89
2022-08-20T06:41:12.633Z,59.20
2022-08-20T06:43:39.156Z,62.19
2022-08-20T06:46:06.836Z,62.62
2022-08-20T06:48:33.354Z,63.40
2022-08-20T06:50:59.851Z,63.87
2022-08-20T06:53:26.350Z,64.41
2022-08-20T06:55:55.827Z,65.01
2022-08-20T06:58:37.557Z,64.01
2022-08-20T07:01:09.847Z,64.91
2022-08-20T07:03:38.208Z,65.16
2022-08-20T07:06:04.860Z,65.76
2022-08-20T07:08:31.340Z,65.93
2022-08-20T07:10:57.850Z,65.50
2022-08-20T07:13:24.416Z,65.14
2022-08-20T07:15:52.998Z,65.34
2022-08-20T07:18:28.356Z,65.69
2022-08-20T07:20:56.922Z,66.19
2022-08-20T07:23:24.170Z,65.60
2022-08-20T07:25:51.006Z,65.55
2022-08-20T07:28:19.594Z,65.20
2022-08-20T07:31:13.174Z,65.10
2022-08-20T07:33:40.554Z,65.44
2022-08-20T07:36:07.851Z,66.15
2022-08-20T07:38:34.532Z,65.14
2022-08-20T07:41:02.678Z,66.30
2022-08-20T07:43:30.248Z,66.53
2022-08-20T07:45:58.504Z,65.59
2022-08-20T07:48:31.116Z,65.35
2022-08-20T07:51:03.744Z,65.34
2022-08-20T07:53:35.194Z,65.93
2022-08-20T07:56:05.809Z,66.12
2022-08-20T07:58:33.472Z,67.23
2022-08-20T08:01:00.353Z,66.33
2022-08-20T08:03:39.937Z,67.76
2022-08-20T08:06:14.546Z,65.69
2022-08-20T08:08:43.864Z,66.58
2022-08-20T08:11:10.535Z,67.14
2022-08-20T08:13:39.425Z,67.51
2022-08-20T08:16:06.690Z,67.84
2022-08-20T08:18:39.625Z,66.51
2022-08-20T08:21:06.610Z,65.17
2022-08-20T08:23:34.598Z,64.46
2022-08-20T08:26:01.333Z,63.97
2022-08-20T08:28:29.580Z,63.47
2022-08-20T08:30:56.283Z,63.54
2022-08-20T08:33:28.843Z,62.86
2022-08-20T08:35:55.819Z,62.61
2022-08-20T08:38:25.821Z,62.50
2022-08-20T08:40:59.799Z,62.66
2022-08-20T08:43:27.282Z,62.50
2022-08-20T08:46:04.413Z,62.21
2022-08-20T08:48:36.220Z,62.12
2022-08-20T08:51:04.996Z,61.79
2022-08-20T08:53:36.287Z,61.83
2022-08-20T08:56:04.088Z,61.35
2022-08-20T08:58:31.664Z,61.92
2022-08-20T09:01:01.703Z,61.56
2022-08-20T09:03:33.261Z,62.20
2022-08-20T09:06:00.789Z,62.34
2022-08-20T09:08:40.003Z,63.82
2022-08-20T09:11:07.256Z,65.15
2022-08-20T09:13:34.122Z,65.29
2022-08-20T09:16:00.634Z,64.82
2022-08-20T09:18:27.174Z,64.29
2022-08-20T09:20:53.664Z,65.08
2022-08-20T09:23:20.162Z,64.53
2022-08-20T09:25:46.646Z,65.05
2022-08-20T09:28:13.136Z,65.12
2022-08-20T09:30:40.587Z,64.74
2022-08-20T09:33:08.362Z,65.05
2022-08-20T09:35:34.891Z,64.04
2022-08-20T09:38:01.562Z,63.83
2022-08-20T09:40:28.042Z,63.68
2022-08-20T09:42:54.716Z,64.31
2022-08-20T09:45:21.345Z,63.81
2022-08-20T09:47:55.419Z,63.85
2022-08-20T09:50:26.935Z,62.70
2022-08-20T09:52:53.719Z,63.48
2022-08-20T09:55:33.943Z,63.13
2022-08-20T09:58:01.639Z,63.19
2022-08-20T10:00:28.268Z,63.14
2022-08-20T10:02:55.112Z,63.29
2022-08-20T10:05:21.897Z,63.54
2022-08-20T10:07:49.291Z,64.01
2022-08-20T10:10:16.291Z,63.59
2022-08-20T10:12:43.207Z,64.10
2022-08-20T10:15:10.273Z,64.05
2022-08-20T10:17:38.476Z,64.25
2022-08-20T10:20:05.888Z,64.17
2022-08-20T10:22:32.775Z,64.70
2022-08-20T10:24:59.311Z,64.03
2022-08-20T10:27:25.801Z,63.58
2022-08-20T10:29:52.291Z,63.35
2022-08-20T10:32:18.879Z,62.78
2022-08-20T10:34:47.573Z,62.70
2022-08-20T10:37:15.517Z,62.16
2022-08-20T10:39:42.071Z,61.72
2022-08-20T10:42:08.599Z,61.57
2022-08-20T10:44:35.099Z,61.49
2022-08-20T10:47:17.895Z,61.14
2022-08-20T10:49:44.389Z,60.96
2022-08-20T10:52:10.879Z,59.85
2022-08-20T10:54:41.337Z,59.78
2022-08-20T10:57:19.054Z,60.18
2022-08-20T10:59:46.466Z,59.58
2022-08-20T11:02:13.225Z,60.06
2022-08-20T11:04:41.061Z,59.61
2022-08-20T11:07:18.030Z,59.81
2022-08-20T11:09:45.269Z,59.76
2022-08-20T11:12:18.516Z,58.98
2022-08-20T11:14:45.334Z,59.24
2022-08-20T11:17:11.936Z,58.64
2022-08-20T11:19:42.255Z,59.15
2022-08-20T11:22:08.937Z,59.47
2022-08-20T11:24:35.707Z,58.92
2022-08-20T11:27:02.204Z,59.89
2022-08-20T11:29:33.387Z,59.78
2022-08-20T11:32:00.455Z,59.10
2022-08-20T11:34:26.939Z,58.72
2022-08-20T11:36:53.491Z,58.21
2022-08-20T11:39:19.984Z,58.02
2022-08-20T11:41:46.518Z,58.62
2022-08-20T11:44:21.144Z,58.08
2022-08-20T11:46:48.178Z,58.24
2022-08-20T11:49:14.672Z,58.83
2022-08-20T11:51:49.543Z,59.28
2022-08-20T11:54:16.727Z,58.45
2022-08-20T11:56:46.017Z,58.67
2022-08-20T11:59:12.838Z,58.47
2022-08-20T12:01:39.326Z,58.10
2022-08-20T12:04:05.974Z,58.21
2022-08-20T12:06:33.643Z,58.14
2022-08-20T12:09:00.198Z,58.34
2022-08-20T12:11:26.702Z,57.78
2022-08-20T12:13:53.510Z,57.90
2022-08-20T12:16:20.363Z,58.60
2022-08-20T12:18:47.235Z,57.79
2022-08-20T12:21:13.792Z,59.19
2022-08-20T12:23:40.342Z,59.05
2022-08-20T12:26:06.936Z,59.50
2022-08-20T12:28:43.087Z,58.82
2022-08-20T12:31:09.636Z,58.64
2022-08-20T12:33:36.126Z,58.39
2022-08-20T12:36:02.781Z,58.47
2022-08-20T12:38:29.320Z,60.13
2022-08-20T12:40:55.835Z,60.81
2022-08-20T12:43:25.066Z,61.04
2022-08-20T12:45:52.058Z,62.78
2022-08-20T12:48:18.572Z,63.52
2022-08-20T12:50:46.201Z,64.08
2022-08-20T12:53:12.713Z,64.27
2022-08-20T12:55:39.265Z,64.38
2022-08-20T12:58:08.139Z,66.49
2022-08-20T13:00:36.535Z,66.01
2022-08-20T13:03:03.842Z,65.73
2022-08-20T13:05:30.572Z,66.12
2022-08-20T13:07:57.249Z,64.75
2022-08-20T13:10:29.011Z,65.98
2022-08-20T13:12:55.774Z,65.79
2022-08-20T13:15:22.420Z,65.45
2022-08-20T13:17:57.814Z,67.40
2022-08-20T13:20:33.961Z,65.56
2022-08-20T13:23:01.466Z,65.67
2022-08-20T13:25:27.957Z,64.85
2022-08-20T13:27:58.478Z,64.84
2022-08-20T13:30:25.010Z,64.46
2022-08-20T13:32:51.567Z,63.31
2022-08-20T13:35:19.371Z,62.20
2022-08-20T13:37:46.089Z,64.59
2022-08-20T13:40:12.790Z,63.83
2022-08-20T13:42:39.329Z,62.97
2022-08-20T13:45:06.383Z,62.69
2022-08-20T13:47:35.434Z,61.81
2022-08-20T13:50:15.168Z,62.96
2022-08-20T13:52:42.717Z,61.88
2022-08-20T13:55:10.967Z,62.34
2022-08-20T13:57:37.498Z,62.63
2022-08-20T14:00:04.324Z,61.60
2022-08-20T14:02:30.816Z,62.32
2022-08-20T14:04:57.354Z,61.50
2022-08-20T14:07:30.031Z,61.56
2022-08-20T14:10:00.389Z,61.47
2022-08-20T14:12:27.521Z,60.58
2022-08-20T14:14:57.197Z,60.01
2022-08-20T14:17:24.687Z,58.75
2022-08-20T14:19:52.763Z,59.00
2022-08-20T14:22:19.339Z,59.10
2022-08-20T14:24:47.930Z,59.50
2022-08-20T14:27:14.947Z,59.70
2022-08-20T14:29:42.964Z,60.57
2022-08-20T14:32:09.698Z,61.44
2022-08-20T14:34:36.415Z,60.75
2022-08-20T14:37:32.975Z,61.60
2022-08-20T14:40:00.564Z,59.95
2022-08-20T14:42:28.128Z,61.01
2022-08-20T14:44:56.129Z,61.45
2022-08-20T14:47:23.450Z,59.89
2022-08-20T14:49:51.761Z,59.95
2022-08-20T14:52:18.867Z,59.43
2022-08-20T14:54:45.608Z,60.12
2022-08-20T14:57:14.077Z,59.75
2022-08-20T14:59:40.924Z,59.67
2022-08-20T15:02:09.597Z,59.41
2022-08-20T15:04:36.328Z,59.81
2022-08-20T15:07:07.999Z,59.08
2022-08-20T15:09:37.299Z,57.16
2022-08-20T15:12:04.130Z,58.52
2022-08-20T15:14:30.616Z,58.10
2022-08-20T15:16:58.133Z,58.48
2022-08-20T15:19:24.967Z,58.74
2022-08-20T15:21:51.490Z,57.85
2022-08-20T15:24:19.392Z,58.53
2022-08-20T15:26:46.162Z,58.78
2022-08-20T15:29:12.706Z,58.83
2022-08-20T15:31:49.576Z,59.39
2022-08-20T15:34:17.679Z,57.98
2022-08-20T15:36:44.898Z,58.42
2022-08-20T15:39:11.625Z,58.95
2022-08-20T15:41:38.117Z,58.47
2022-08-20T15:44:04.643Z,59.21
2022-08-20T15:46:35.996Z,59.14
2022-08-20T15:49:05.780Z,59.37
2022-08-20T15:51:34.493Z,59.47
2022-08-20T15:54:07.602Z,59.26
2022-08-20T15:56:58.436Z,59.31
2022-08-20T15:59:30.790Z,59.10
2022-08-20T16:02:27.439Z,57.37
2022-08-20T16:04:59.885Z,58.32
2022-08-20T16:07:39.535Z,58.15
2022-08-20T16:10:25.110Z,58.77
2022-08-20T16:12:53.318Z,58.56
2022-08-20T16:15:24.405Z,57.33
2022-08-20T16:17:55.173Z,58.05
2022-08-20T16:20:35.396Z,58.46
2022-08-20T16:23:03.486Z,59.75
2022-08-20T16:25:34.717Z,58.53
2022-08-20T16:28:16.924Z,59.38
2022-08-20T16:30:47.916Z,60.23
2022-08-20T16:33:23.018Z,60.34
2022-08-20T16:35:56.450Z,61.37
2022-08-20T16:38:56.618Z,61.80
2022-08-20T16:41:26.663Z,62.03
2022-08-20T16:43:55.383Z,63.06
2022-08-20T16:46:27.879Z,64.08
2022-08-20T16:48:58.060Z,65.26
2022-08-20T16:51:44.589Z,65.54
2022-08-20T16:54:13.747Z,64.33
2022-08-20T16:56:42.888Z,64.32
2022-08-20T16:59:18.381Z,63.54
2022-08-20T17:02:10.459Z,63.05
2022-08-20T17:04:58.567Z,63.23
2022-08-20T17:07:46.032Z,62.89
2022-08-20T17:10:23.393Z,62.90
2022-08-20T17:12:59.435Z,62.14
2022-08-20T17:15:28.670Z,62.02
2022-08-20T17:17:55.927Z,61.93
2022-08-20T17:20:24.520Z,62.31
2022-08-20T17:23:06.083Z,62.75
2022-08-20T17:25:37.559Z,62.94
2022-08-20T17:28:18.659Z,62.40
2022-08-20T17:30:46.170Z,62.49
2022-08-20T17:33:33.792Z,59.68
2022-08-20T17:36:17.124Z,61.29
2022-08-20T17:38:48.590Z,61.78
2022-08-20T17:41:20.441Z,61.51
2022-08-20T17:44:05.107Z,61.21
2022-08-20T17:46:33.993Z,61.33
2022-08-20T17:49:01.978Z,61.65
2022-08-20T17:51:32.918Z,61.13
2022-08-20T17:54:10.652Z,61.48
2022-08-20T17:56:38.104Z,61.08
2022-08-20T17:59:11.321Z,61.79
2022-08-20T18:01:37.900Z,61.74
2022-08-20T18:04:04.494Z,61.46
2022-08-20T18:06:52.505Z,61.90
2022-08-20T18:09:27.815Z,61.02
2022-08-20T18:12:07.066Z,61.26
2022-08-20T18:15:16.191Z,61.84
2022-08-20T18:17:49.661Z,61.29
2022-08-20T18:20:25.267Z,61.60
2022-08-20T18:23:15.292Z,61.37
2022-08-20T18:25:45.556Z,61.37
2022-08-20T18:28:36.405Z,61.30
2022-08-20T18:31:07.220Z,60.40
2022-08-20T18:33:36.101Z,60.46
2022-08-20T18:36:10.264Z,60.71
2022-08-20T18:38:38.466Z,60.58
2022-08-20T18:41:15.379Z,60.52
2022-08-20T18:43:42.157Z,60.62
2022-08-20T18:46:14.074Z,60.25
2022-08-20T18:48:50.705Z,59.87
2022-08-20T18:51:17.219Z,59.51
2022-08-20T18:53:46.947Z,59.75
2022-08-20T18:56:18.741Z,59.83
2022-08-20T18:59:02.249Z,59.67
2022-08-20T19:01:28.795Z,59.51
2022-08-20T19:03:56.047Z,58.22
2022-08-20T19:06:41.613Z,57.90
2022-08-20T19:09:17.595Z,58.08
2022-08-20T19:12:05.880Z,58.00
2022-08-20T19:14:57.895Z,57.90
2022-08-20T19:17:28.403Z,58.02
2022-08-20T19:20:00.512Z,58.06
2022-08-20T19:22:27.337Z,58.06
2022-08-20T19:24:56.680Z,57.87
2022-08-20T19:27:23.443Z,57.62
2022-08-20T19:29:49.974Z,57.63
2022-08-20T19:32:30.933Z,57.42
2022-08-20T19:34:58.159Z,57.49
2022-08-20T19:37:39.683Z,57.04
2022-08-20T19:40:29.491Z,57.21
2022-08-20T19:42:57.370Z,57.23
2022-08-20T19:45:28.137Z,57.09
2022-08-20T19:48:11.688Z,57.14
2022-08-20T19:50:57.696Z,56.61
2022-08-20T19:53:30.314Z,56.66
2022-08-20T19:56:16.099Z,56.71
2022-08-20T19:58:42.974Z,56.58
2022-08-20T20:01:17.875Z,56.25
2022-08-20T20:03:54.751Z,56.26
2022-08-20T20:06:21.279Z,56.46
2022-08-20T20:08:57.413Z,56.08
2022-08-20T20:11:34.109Z,56.17
2022-08-20T20:14:08.052Z,56.09
2022-08-20T20:16:34.896Z,56.24
2022-08-20T20:19:24.876Z,56.15
2022-08-20T20:21:50.224Z,55.84
2022-08-20T20:24:26.236Z,55.97
2022-08-20T20:26:52.886Z,56.10
2022-08-20T20:29:34.129Z,55.99
2022-08-20T20:32:01.179Z,55.95
2022-08-20T20:34:35.115Z,55.91
2022-08-20T20:37:49.307Z,55.82
2022-08-20T20:40:27.157Z,56.13
2022-08-20T20:43:07.555Z,55.76
2022-08-20T20:45:42.257Z,55.77
2022-08-20T20:48:18.383Z,55.87
2022-08-20T20:50:46.739Z,55.57
2022-08-20T20:53:13.753Z,55.78
2022-08-20T20:55:40.332Z,55.81
2022-08-20T20:58:06.852Z,55.42
2022-08-20T21:00:33.968Z,55.35
2022-08-20T21:03:03.894Z,55.52
2022-08-20T21:05:30.610Z,55.58
2022-08-20T21:07:59.190Z,55.04
2022-08-20T21:10:28.002Z,55.18
2022-08-20T21:12:54.706Z,54.87
2022-08-20T21:15:22.205Z,55.13
2022-08-20T21:17:48.755Z,55.08
2022-08-20T21:20:15.252Z,54.74
2022-08-20T21:22:41.742Z,54.92
2022-08-20T21:25:08.383Z,54.81
2022-08-20T21:27:35.075Z,54.92
2022-08-20T21:30:01.911Z,54.94
2022-08-20T21:32:28.469Z,54.69
2022-08-20T21:34:55.215Z,54.76
2022-08-20T21:37:21.710Z,54.65
2022-08-20T21:39:48.289Z,54.77
2022-08-20T21:42:28.132Z,54.68
2022-08-20T21:44:56.180Z,54.68
2022-08-20T21:47:22.744Z,54.56
2022-08-20T21:49:49.312Z,54.22
2022-08-20T21:52:15.827Z,54.46
2022-08-20T21:54:42.324Z,54.33
2022-08-20T21:57:23.708Z,54.10
2022-08-20T21:59:50.208Z,53.48
2022-08-20T22:02:17.196Z,53.54
2022-08-20T22:04:43.723Z,53.64
2022-08-20T22:07:10.540Z,53.18
2022-08-20T22:09:38.632Z,53.45
2022-08-20T22:12:19.164Z,53.39
2022-08-20T22:14:45.674Z,53.03
2022-08-20T22:17:12.942Z,52.91
2022-08-20T22:19:39.805Z,52.86
2022-08-20T22:22:07.116Z,53.09
2022-08-20T22:24:33.612Z,52.83
2022-08-20T22:27:00.104Z,53.06
2022-08-20T22:29:26.620Z,52.82
2022-08-20T22:31:53.105Z,52.97
2022-08-20T22:34:19.643Z,52.84
2022-08-20T22:36:46.277Z,52.99
2022-08-20T22:39:12.782Z,52.99
2022-08-20T22:41:39.350Z,52.83
2022-08-20T22:44:05.887Z,52.70
2022-08-20T22:46:34.832Z,53.04
2022-08-20T22:49:01.494Z,52.62
2022-08-20T22:51:30.556Z,52.66
2022-08-20T22:53:58.045Z,52.61
2022-08-20T22:56:24.536Z,52.74
2022-08-20T22:58:51.362Z,52.62
2022-08-20T23:01:18.657Z,52.86
2022-08-20T23:03:45.304Z,52.89
2022-08-20T23:06:12.035Z,52.69
2022-08-20T23:08:38.722Z,52.70
2022-08-20T23:11:05.344Z,52.53
2022-08-20T23:13:31.853Z,52.38
2022-08-20T23:15:58.338Z,52.36
2022-08-20T23:18:24.846Z,52.68
2022-08-20T23:20:53.666Z,52.60
2022-08-20T23:23:20.517Z,52.38
2022-08-20T23:25:47.027Z,52.66
2022-08-20T23:28:13.527Z,52.70
2022-08-20T23:30:40.030Z,52.35
2022-08-20T23:33:06.531Z,52.33
2022-08-20T23:35:33.613Z,52.69
2022-08-20T23:38:00.141Z,52.38
2022-08-20T23:40:28.209Z,52.62
2022-08-20T23:42:55.034Z,52.30
2022-08-20T23:45:21.805Z,52.52
2022-08-20T23:47:48.342Z,52.20
2022-08-20T23:50:16.546Z,52.22
2022-08-20T23:52:43.091Z,52.39
2022-08-20T23:55:09.693Z,52.19
2022-08-20T23:57:37.671Z,52.30
